sensor_id;sensor_type;location;lat;lon;timestamp;P1;durP1;ratioP1;P2;durP2;ratioP2
82000;SDS011;71510;50.558;7.258;2023-11-19T00:01:50;0.88;;;0.88;;
82000;SDS011;71510;50.558;7.258;2023-11-19T00:04:17;7.12;;;1.40;;
82000;SDS011;71510;50.558;7.258;2023-11-19T00:06:44;1.70;;;0.80;;
82000;SDS011;71510;50.558;7.258;2023-11-19T00:09:11;4.37;;;0.90;;
82000;SDS011;71510;50.558;7.258;2023-11-19T00:11:39;1.82;;;1.10;;
82000;SDS011;71510;50.558;7.258;2023-11-19T00:14:06;1.70;;;0.82;;
82000;SDS011;71510;50.558;7.258;2023-11-19T00:16:34;1.47;;;1.12;;
82000;SDS011;71510;50.558;7.258;2023-11-19T00:19:02;1.70;;;0.60;;
82000;SDS011;71510;50.558;7.258;2023-11-19T00:21:30;0.80;;;0.60;;
82000;SDS011;71510;50.558;7.258;2023-11-19T00:23:59;3.30;;;0.70;;
82000;SDS011;71510;50.558;7.258;2023-11-19T00:26:27;3.00;;;1.00;;
82000;SDS011;71510;50.558;7.258;2023-11-19T00:28:54;1.27;;;0.60;;
82000;SDS011;71510;50.558;7.258;2023-11-19T00:31:22;1.10;;;0.62;;
82000;SDS011;71510;50.558;7.258;2023-11-19T00:33:49;5.25;;;1.70;;
82000;SDS011;71510;50.558;7.258;2023-11-19T00:36:16;2.80;;;0.80;;
82000;SDS011;71510;50.558;7.258;2023-11-19T00:38:44;2.25;;;1.00;;
82000;SDS011;71510;50.558;7.258;2023-11-19T00:41:11;1.98;;;0.95;;
82000;SDS011;71510;50.558;7.258;2023-11-19T00:43:38;3.20;;;1.55;;
82000;SDS011;71510;50.558;7.258;2023-11-19T00:46:07;1.15;;;0.85;;
82000;SDS011;71510;50.558;7.258;2023-11-19T00:48:34;2.52;;;1.00;;
82000;SDS011;71510;50.558;7.258;2023-11-19T00:51:02;3.90;;;1.35;;
82000;SDS011;71510;50.558;7.258;2023-11-19T00:53:30;4.28;;;0.90;;
82000;SDS011;71510;50.558;7.258;2023-11-19T00:55:58;2.87;;;0.70;;
82000;SDS011;71510;50.558;7.258;2023-11-19T00:58:25;5.70;;;1.52;;
82000;SDS011;71510;50.558;7.258;2023-11-19T01:00:53;1.40;;;0.90;;
82000;SDS011;71510;50.558;7.258;2023-11-19T01:03:20;0.82;;;0.82;;
82000;SDS011;71510;50.558;7.258;2023-11-19T01:05:48;1.20;;;1.02;;
82000;SDS011;71510;50.558;7.258;2023-11-19T01:08:15;1.80;;;0.80;;
82000;SDS011;71510;50.558;7.258;2023-11-19T01:10:42;1.77;;;0.82;;
82000;SDS011;71510;50.558;7.258;2023-11-19T01:13:10;1.75;;;0.62;;
82000;SDS011;71510;50.558;7.258;2023-11-19T01:15:37;3.45;;;0.98;;
82000;SDS011;71510;50.558;7.258;2023-11-19T01:18:05;3.50;;;1.07;;
82000;SDS011;71510;50.558;7.258;2023-11-19T01:20:34;1.00;;;0.90;;
82000;SDS011;71510;50.558;7.258;2023-11-19T01:23:02;1.52;;;0.78;;
82000;SDS011;71510;50.558;7.258;2023-11-19T01:25:29;1.32;;;0.62;;
82000;SDS011;71510;50.558;7.258;2023-11-19T01:27:56;2.52;;;0.95;;
82000;SDS011;71510;50.558;7.258;2023-11-19T01:30:24;2.40;;;1.00;;
82000;SDS011;71510;50.558;7.258;2023-11-19T01:32:52;3.77;;;1.45;;
82000;SDS011;71510;50.558;7.258;2023-11-19T01:35:19;6.58;;;1.00;;
82000;SDS011;71510;50.558;7.258;2023-11-19T01:37:47;3.22;;;0.60;;
82000;SDS011;71510;50.558;7.258;2023-11-19T01:40:14;2.08;;;0.40;;
82000;SDS011;71510;50.558;7.258;2023-11-19T01:42:42;1.82;;;0.50;;
82000;SDS011;71510;50.558;7.258;2023-11-19T01:45:10;1.15;;;0.62;;
82000;SDS011;71510;50.558;7.258;2023-11-19T01:47:38;4.15;;;1.10;;
82000;SDS011;71510;50.558;7.258;2023-11-19T01:50:07;1.50;;;0.47;;
82000;SDS011;71510;50.558;7.258;2023-11-19T01:52:35;2.15;;;0.75;;
82000;SDS011;71510;50.558;7.258;2023-11-19T01:55:04;0.70;;;0.40;;
82000;SDS011;71510;50.558;7.258;2023-11-19T01:57:31;0.50;;;0.40;;
82000;SDS011;71510;50.558;7.258;2023-11-19T01:59:58;1.75;;;0.30;;
82000;SDS011;71510;50.558;7.258;2023-11-19T02:02:26;2.08;;;0.25;;
82000;SDS011;71510;50.558;7.258;2023-11-19T02:04:53;3.10;;;0.30;;
82000;SDS011;71510;50.558;7.258;2023-11-19T02:07:20;0.40;;;0.40;;
82000;SDS011;71510;50.558;7.258;2023-11-19T02:09:48;1.67;;;0.50;;
82000;SDS011;71510;50.558;7.258;2023-11-19T02:12:15;4.47;;;0.60;;
82000;SDS011;71510;50.558;7.258;2023-11-19T02:14:42;0.50;;;0.37;;
82000;SDS011;71510;50.558;7.258;2023-11-19T02:17:32;0.82;;;0.40;;
82000;SDS011;71510;50.558;7.258;2023-11-19T02:19:39;1.37;;;0.50;;
82000;SDS011;71510;50.558;7.258;2023-11-19T02:22:06;0.72;;;0.68;;
82000;SDS011;71510;50.558;7.258;2023-11-19T02:24:33;4.03;;;0.40;;
82000;SDS011;71510;50.558;7.258;2023-11-19T02:27:07;1.80;;;0.50;;
82000;SDS011;71510;50.558;7.258;2023-11-19T02:29:34;0.53;;;0.40;;
82000;SDS011;71510;50.558;7.258;2023-11-19T02:32:01;1.55;;;0.30;;
82000;SDS011;71510;50.558;7.258;2023-11-19T02:34:29;3.35;;;0.40;;
82000;SDS011;71510;50.558;7.258;2023-11-19T02:36:57;0.60;;;0.30;;
82000;SDS011;71510;50.558;7.258;2023-11-19T02:39:24;0.60;;;0.30;;
82000;SDS011;71510;50.558;7.258;2023-11-19T02:41:52;2.85;;;0.88;;
82000;SDS011;71510;50.558;7.258;2023-11-19T02:44:20;0.75;;;0.30;;
82000;SDS011;71510;50.558;7.258;2023-11-19T02:46:47;1.62;;;0.40;;
82000;SDS011;71510;50.558;7.258;2023-11-19T02:49:14;1.55;;;0.50;;
82000;SDS011;71510;50.558;7.258;2023-11-19T02:51:42;2.33;;;0.40;;
82000;SDS011;71510;50.558;7.258;2023-11-19T02:54:09;0.30;;;0.30;;
82000;SDS011;71510;50.558;7.258;2023-11-19T02:56:36;0.80;;;0.68;;
82000;SDS011;71510;50.558;7.258;2023-11-19T02:59:06;0.62;;;0.50;;
82000;SDS011;71510;50.558;7.258;2023-11-19T03:01:35;1.95;;;0.47;;
82000;SDS011;71510;50.558;7.258;2023-11-19T03:04:02;2.33;;;0.40;;
82000;SDS011;71510;50.558;7.258;2023-11-19T03:06:30;1.52;;;0.45;;
82000;SDS011;71510;50.558;7.258;2023-11-19T03:08:58;1.57;;;0.30;;
82000;SDS011;71510;50.558;7.258;2023-11-19T03:11:27;0.60;;;0.50;;
82000;SDS011;71510;50.558;7.258;2023-11-19T03:13:54;0.60;;;0.30;;
82000;SDS011;71510;50.558;7.258;2023-11-19T03:16:21;0.65;;;0.60;;
82000;SDS011;71510;50.558;7.258;2023-11-19T03:18:49;0.42;;;0.42;;
82000;SDS011;71510;50.558;7.258;2023-11-19T03:21:16;0.82;;;0.53;;
82000;SDS011;71510;50.558;7.258;2023-11-19T03:23:43;0.80;;;0.60;;
82000;SDS011;71510;50.558;7.258;2023-11-19T03:26:11;0.60;;;0.40;;
82000;SDS011;71510;50.558;7.258;2023-11-19T03:28:39;3.70;;;0.37;;
82000;SDS011;71510;50.558;7.258;2023-11-19T03:31:07;1.05;;;0.40;;
82000;SDS011;71510;50.558;7.258;2023-11-19T03:33:36;3.08;;;0.50;;
82000;SDS011;71510;50.558;7.258;2023-11-19T03:36:04;0.53;;;0.42;;
82000;SDS011;71510;50.558;7.258;2023-11-19T03:38:31;0.60;;;0.53;;
82000;SDS011;71510;50.558;7.258;2023-11-19T03:40:59;2.10;;;0.80;;
82000;SDS011;71510;50.558;7.258;2023-11-19T03:43:26;3.05;;;0.90;;
82000;SDS011;71510;50.558;7.258;2023-11-19T03:45:54;5.62;;;0.70;;
82000;SDS011;71510;50.558;7.258;2023-11-19T03:48:21;4.50;;;0.50;;
82000;SDS011;71510;50.558;7.258;2023-11-19T03:50:48;1.27;;;0.40;;
82000;SDS011;71510;50.558;7.258;2023-11-19T03:53:16;3.15;;;0.68;;
82000;SDS011;71510;50.558;7.258;2023-11-19T03:55:45;1.15;;;0.60;;
82000;SDS011;71510;50.558;7.258;2023-11-19T03:58:12;2.17;;;0.70;;
82000;SDS011;71510;50.558;7.258;2023-11-19T04:00:40;1.35;;;0.65;;
82000;SDS011;71510;50.558;7.258;2023-11-19T04:03:07;1.17;;;0.80;;
82000;SDS011;71510;50.558;7.258;2023-11-19T04:05:34;0.70;;;0.50;;
82000;SDS011;71510;50.558;7.258;2023-11-19T04:08:02;2.40;;;0.72;;
82000;SDS011;71510;50.558;7.258;2023-11-19T04:10:29;1.95;;;0.50;;
82000;SDS011;71510;50.558;7.258;2023-11-19T04:12:56;1.15;;;0.68;;
82000;SDS011;71510;50.558;7.258;2023-11-19T04:15:23;2.20;;;0.40;;
82000;SDS011;71510;50.558;7.258;2023-11-19T04:17:51;2.87;;;0.70;;
82000;SDS011;71510;50.558;7.258;2023-11-19T04:20:18;4.50;;;0.70;;
82000;SDS011;71510;50.558;7.258;2023-11-19T04:22:45;2.42;;;0.78;;
82000;SDS011;71510;50.558;7.258;2023-11-19T04:25:13;4.40;;;0.70;;
82000;SDS011;71510;50.558;7.258;2023-11-19T04:27:41;1.67;;;0.60;;
82000;SDS011;71510;50.558;7.258;2023-11-19T04:30:08;0.53;;;0.50;;
82000;SDS011;71510;50.558;7.258;2023-11-19T04:32:37;5.45;;;0.50;;
82000;SDS011;71510;50.558;7.258;2023-11-19T04:35:05;2.90;;;0.45;;
82000;SDS011;71510;50.558;7.258;2023-11-19T04:37:33;0.98;;;0.50;;
82000;SDS011;71510;50.558;7.258;2023-11-19T04:40:01;5.78;;;0.70;;
82000;SDS011;71510;50.558;7.258;2023-11-19T04:42:28;1.05;;;0.40;;
82000;SDS011;71510;50.558;7.258;2023-11-19T04:44:55;2.45;;;0.60;;
82000;SDS011;71510;50.558;7.258;2023-11-19T04:47:23;1.65;;;0.60;;
82000;SDS011;71510;50.558;7.258;2023-11-19T04:49:50;1.00;;;0.70;;
82000;SDS011;71510;50.558;7.258;2023-11-19T04:52:17;4.70;;;0.88;;
82000;SDS011;71510;50.558;7.258;2023-11-19T04:54:45;1.02;;;0.80;;
82000;SDS011;71510;50.558;7.258;2023-11-19T04:57:12;3.42;;;1.25;;
82000;SDS011;71510;50.558;7.258;2023-11-19T04:59:39;6.37;;;0.90;;
82000;SDS011;71510;50.558;7.258;2023-11-19T05:02:08;4.87;;;0.98;;
82000;SDS011;71510;50.558;7.258;2023-11-19T05:04:35;2.60;;;0.90;;
82000;SDS011;71510;50.558;7.258;2023-11-19T05:07:03;1.55;;;1.00;;
82000;SDS011;71510;50.558;7.258;2023-11-19T05:09:31;2.77;;;0.93;;
82000;SDS011;71510;50.558;7.258;2023-11-19T05:11:58;1.62;;;0.88;;
82000;SDS011;71510;50.558;7.258;2023-11-19T05:14:25;3.75;;;0.90;;
82000;SDS011;71510;50.558;7.258;2023-11-19T05:16:53;2.37;;;1.37;;
82000;SDS011;71510;50.558;7.258;2023-11-19T05:19:20;5.55;;;1.00;;
82000;SDS011;71510;50.558;7.258;2023-11-19T05:21:47;2.20;;;1.30;;
82000;SDS011;71510;50.558;7.258;2023-11-19T05:24:16;3.45;;;1.20;;
82000;SDS011;71510;50.558;7.258;2023-11-19T05:26:44;2.15;;;1.32;;
82000;SDS011;71510;50.558;7.258;2023-11-19T05:29:11;5.60;;;1.67;;
82000;SDS011;71510;50.558;7.258;2023-11-19T05:31:38;3.27;;;1.70;;
82000;SDS011;71510;50.558;7.258;2023-11-19T05:34:05;3.08;;;1.47;;
82000;SDS011;71510;50.558;7.258;2023-11-19T05:36:33;3.70;;;2.08;;
82000;SDS011;71510;50.558;7.258;2023-11-19T05:39:00;4.85;;;2.08;;
82000;SDS011;71510;50.558;7.258;2023-11-19T05:41:29;4.90;;;2.30;;
82000;SDS011;71510;50.558;7.258;2023-11-19T05:43:56;11.40;;;2.70;;
82000;SDS011;71510;50.558;7.258;2023-11-19T05:46:23;5.55;;;2.40;;
82000;SDS011;71510;50.558;7.258;2023-11-19T05:48:52;5.12;;;2.37;;
82000;SDS011;71510;50.558;7.258;2023-11-19T05:51:20;4.42;;;2.30;;
82000;SDS011;71510;50.558;7.258;2023-11-19T05:53:47;2.85;;;1.70;;
82000;SDS011;71510;50.558;7.258;2023-11-19T05:56:16;5.50;;;1.82;;
82000;SDS011;71510;50.558;7.258;2023-11-19T05:58:45;4.67;;;2.00;;
82000;SDS011;71510;50.558;7.258;2023-11-19T06:01:14;5.12;;;1.92;;
82000;SDS011;71510;50.558;7.258;2023-11-19T06:03:41;5.70;;;1.60;;
82000;SDS011;71510;50.558;7.258;2023-11-19T06:06:09;8.45;;;3.10;;
82000;SDS011;71510;50.558;7.258;2023-11-19T06:08:38;3.17;;;1.77;;
82000;SDS011;71510;50.558;7.258;2023-11-19T06:11:05;4.00;;;2.12;;
82000;SDS011;71510;50.558;7.258;2023-11-19T06:13:33;4.35;;;2.00;;
82000;SDS011;71510;50.558;7.258;2023-11-19T06:16:01;3.12;;;2.10;;
82000;SDS011;71510;50.558;7.258;2023-11-19T06:18:29;7.05;;;2.62;;
82000;SDS011;71510;50.558;7.258;2023-11-19T06:20:57;14.07;;;2.35;;
82000;SDS011;71510;50.558;7.258;2023-11-19T06:23:25;4.70;;;2.20;;
82000;SDS011;71510;50.558;7.258;2023-11-19T06:25:52;6.25;;;2.22;;
82000;SDS011;71510;50.558;7.258;2023-11-19T06:28:20;3.72;;;2.33;;
82000;SDS011;71510;50.558;7.258;2023-11-19T06:30:47;5.87;;;2.20;;
82000;SDS011;71510;50.558;7.258;2023-11-19T06:33:14;7.37;;;2.08;;
82000;SDS011;71510;50.558;7.258;2023-11-19T06:35:42;8.13;;;2.67;;
82000;SDS011;71510;50.558;7.258;2023-11-19T06:38:09;7.12;;;2.67;;
82000;SDS011;71510;50.558;7.258;2023-11-19T06:40:37;8.20;;;2.70;;
82000;SDS011;71510;50.558;7.258;2023-11-19T06:43:04;5.83;;;2.77;;
82000;SDS011;71510;50.558;7.258;2023-11-19T06:45:33;11.08;;;2.90;;
82000;SDS011;71510;50.558;7.258;2023-11-19T06:48:00;6.20;;;3.37;;
82000;SDS011;71510;50.558;7.258;2023-11-19T06:50:30;9.08;;;2.62;;
82000;SDS011;71510;50.558;7.258;2023-11-19T06:52:57;12.23;;;2.95;;
82000;SDS011;71510;50.558;7.258;2023-11-19T06:55:26;16.27;;;3.35;;
82000;SDS011;71510;50.558;7.258;2023-11-19T06:57:53;20.55;;;2.65;;
82000;SDS011;71510;50.558;7.258;2023-11-19T07:00:21;18.87;;;3.35;;
82000;SDS011;71510;50.558;7.258;2023-11-19T07:02:48;19.20;;;3.62;;
82000;SDS011;71510;50.558;7.258;2023-11-19T07:05:17;16.07;;;2.80;;
82000;SDS011;71510;50.558;7.258;2023-11-19T07:07:45;13.43;;;1.98;;
82000;SDS011;71510;50.558;7.258;2023-11-19T07:10:13;13.25;;;2.52;;
82000;SDS011;71510;50.558;7.258;2023-11-19T07:12:40;13.35;;;2.72;;
82000;SDS011;71510;50.558;7.258;2023-11-19T07:15:08;14.58;;;2.77;;
82000;SDS011;71510;50.558;7.258;2023-11-19T07:17:36;14.33;;;2.75;;
82000;SDS011;71510;50.558;7.258;2023-11-19T07:20:03;15.83;;;3.02;;
82000;SDS011;71510;50.558;7.258;2023-11-19T07:22:32;20.85;;;2.72;;
82000;SDS011;71510;50.558;7.258;2023-11-19T07:24:59;12.03;;;2.72;;
82000;SDS011;71510;50.558;7.258;2023-11-19T07:27:27;10.55;;;2.80;;
82000;SDS011;71510;50.558;7.258;2023-11-19T07:29:54;14.90;;;2.72;;
82000;SDS011;71510;50.558;7.258;2023-11-19T07:32:22;11.18;;;2.58;;
82000;SDS011;71510;50.558;7.258;2023-11-19T07:34:49;9.40;;;2.65;;
82000;SDS011;71510;50.558;7.258;2023-11-19T07:37:16;14.58;;;2.72;;
82000;SDS011;71510;50.558;7.258;2023-11-19T07:39:44;14.68;;;2.60;;
82000;SDS011;71510;50.558;7.258;2023-11-19T07:42:11;10.58;;;2.15;;
82000;SDS011;71510;50.558;7.258;2023-11-19T07:44:38;10.48;;;2.22;;
82000;SDS011;71510;50.558;7.258;2023-11-19T07:47:06;11.43;;;3.50;;
82000;SDS011;71510;50.558;7.258;2023-11-19T07:49:33;14.10;;;3.02;;
82000;SDS011;71510;50.558;7.258;2023-11-19T07:52:00;15.38;;;3.08;;
82000;SDS011;71510;50.558;7.258;2023-11-19T07:54:29;15.95;;;3.55;;
82000;SDS011;71510;50.558;7.258;2023-11-19T07:56:56;16.65;;;2.50;;
82000;SDS011;71510;50.558;7.258;2023-11-19T07:59:23;14.33;;;3.42;;
82000;SDS011;71510;50.558;7.258;2023-11-19T08:01:51;14.58;;;3.05;;
82000;SDS011;71510;50.558;7.258;2023-11-19T08:04:18;21.85;;;3.70;;
82000;SDS011;71510;50.558;7.258;2023-11-19T08:06:46;19.00;;;3.40;;
82000;SDS011;71510;50.558;7.258;2023-11-19T08:09:13;15.28;;;3.00;;
82000;SDS011;71510;50.558;7.258;2023-11-19T08:11:41;15.23;;;3.02;;
82000;SDS011;71510;50.558;7.258;2023-11-19T08:14:08;20.95;;;3.95;;
82000;SDS011;71510;50.558;7.258;2023-11-19T08:16:36;14.95;;;2.83;;
82000;SDS011;71510;50.558;7.258;2023-11-19T08:19:04;14.33;;;3.27;;
82000;SDS011;71510;50.558;7.258;2023-11-19T08:21:31;13.32;;;3.12;;
82000;SDS011;71510;50.558;7.258;2023-11-19T08:23:58;14.70;;;3.80;;
82000;SDS011;71510;50.558;7.258;2023-11-19T08:26:25;19.15;;;4.75;;
82000;SDS011;71510;50.558;7.258;2023-11-19T08:28:53;15.25;;;3.62;;
82000;SDS011;71510;50.558;7.258;2023-11-19T08:31:20;20.92;;;3.22;;
82000;SDS011;71510;50.558;7.258;2023-11-19T08:33:47;18.73;;;3.05;;
82000;SDS011;71510;50.558;7.258;2023-11-19T08:36:15;18.80;;;3.52;;
82000;SDS011;71510;50.558;7.258;2023-11-19T08:38:43;15.13;;;3.27;;
82000;SDS011;71510;50.558;7.258;2023-11-19T08:41:10;14.35;;;2.67;;
82000;SDS011;71510;50.558;7.258;2023-11-19T08:43:37;17.52;;;2.75;;
82000;SDS011;71510;50.558;7.258;2023-11-19T08:46:14;18.85;;;3.52;;
82000;SDS011;71510;50.558;7.258;2023-11-19T08:48:34;20.75;;;3.85;;
82000;SDS011;71510;50.558;7.258;2023-11-19T08:51:01;18.70;;;3.22;;
82000;SDS011;71510;50.558;7.258;2023-11-19T08:53:29;17.90;;;4.00;;
82000;SDS011;71510;50.558;7.258;2023-11-19T08:55:56;21.45;;;4.65;;
82000;SDS011;71510;50.558;7.258;2023-11-19T08:58:23;18.15;;;4.10;;
82000;SDS011;71510;50.558;7.258;2023-11-19T09:00:51;20.12;;;4.17;;
82000;SDS011;71510;50.558;7.258;2023-11-19T09:03:18;24.72;;;3.87;;
82000;SDS011;71510;50.558;7.258;2023-11-19T09:05:46;19.25;;;3.83;;
82000;SDS011;71510;50.558;7.258;2023-11-19T09:08:13;25.43;;;4.75;;
82000;SDS011;71510;50.558;7.258;2023-11-19T09:10:41;19.27;;;4.65;;
82000;SDS011;71510;50.558;7.258;2023-11-19T09:13:08;21.87;;;3.47;;
82000;SDS011;71510;50.558;7.258;2023-11-19T09:15:35;21.80;;;4.28;;
82000;SDS011;71510;50.558;7.258;2023-11-19T09:18:03;16.30;;;4.33;;
82000;SDS011;71510;50.558;7.258;2023-11-19T09:20:31;18.30;;;3.98;;
82000;SDS011;71510;50.558;7.258;2023-11-19T09:22:59;17.75;;;4.30;;
82000;SDS011;71510;50.558;7.258;2023-11-19T09:25:27;18.45;;;3.72;;
82000;SDS011;71510;50.558;7.258;2023-11-19T09:27:54;21.27;;;4.00;;
82000;SDS011;71510;50.558;7.258;2023-11-19T09:30:21;21.68;;;4.30;;
82000;SDS011;71510;50.558;7.258;2023-11-19T09:32:49;25.92;;;4.58;;
82000;SDS011;71510;50.558;7.258;2023-11-19T09:35:16;23.20;;;4.72;;
82000;SDS011;71510;50.558;7.258;2023-11-19T09:37:44;20.00;;;4.22;;
82000;SDS011;71510;50.558;7.258;2023-11-19T09:40:11;22.75;;;3.80;;
82000;SDS011;71510;50.558;7.258;2023-11-19T09:42:44;31.93;;;4.37;;
82000;SDS011;71510;50.558;7.258;2023-11-19T09:45:07;18.40;;;3.35;;
82000;SDS011;71510;50.558;7.258;2023-11-19T09:47:36;19.95;;;3.58;;
82000;SDS011;71510;50.558;7.258;2023-11-19T09:50:03;18.80;;;3.65;;
82000;SDS011;71510;50.558;7.258;2023-11-19T09:52:31;21.23;;;4.87;;
82000;SDS011;71510;50.558;7.258;2023-11-19T09:54:58;24.07;;;4.08;;
82000;SDS011;71510;50.558;7.258;2023-11-19T09:57:25;15.95;;;3.52;;
82000;SDS011;71510;50.558;7.258;2023-11-19T09:59:53;16.42;;;4.05;;
82000;SDS011;71510;50.558;7.258;2023-11-19T10:02:21;16.80;;;3.33;;
82000;SDS011;71510;50.558;7.258;2023-11-19T10:04:48;17.65;;;3.47;;
82000;SDS011;71510;50.558;7.258;2023-11-19T10:07:17;22.75;;;5.30;;
82000;SDS011;71510;50.558;7.258;2023-11-19T10:09:44;24.43;;;4.62;;
82000;SDS011;71510;50.558;7.258;2023-11-19T10:12:13;16.00;;;3.90;;
82000;SDS011;71510;50.558;7.258;2023-11-19T10:14:40;18.90;;;3.87;;
82000;SDS011;71510;50.558;7.258;2023-11-19T10:17:08;16.42;;;3.27;;
82000;SDS011;71510;50.558;7.258;2023-11-19T10:19:35;14.98;;;3.67;;
82000;SDS011;71510;50.558;7.258;2023-11-19T10:22:08;20.75;;;4.35;;
82000;SDS011;71510;50.558;7.258;2023-11-19T10:24:32;24.20;;;4.58;;
82000;SDS011;71510;50.558;7.258;2023-11-19T10:27:00;15.43;;;3.72;;
82000;SDS011;71510;50.558;7.258;2023-11-19T10:29:29;16.12;;;4.25;;
82000;SDS011;71510;50.558;7.258;2023-11-19T10:31:57;18.25;;;4.75;;
82000;SDS011;71510;50.558;7.258;2023-11-19T10:34:27;19.07;;;3.95;;
82000;SDS011;71510;50.558;7.258;2023-11-19T10:36:56;17.32;;;4.03;;
82000;SDS011;71510;50.558;7.258;2023-11-19T10:39:23;26.35;;;5.58;;
82000;SDS011;71510;50.558;7.258;2023-11-19T10:41:50;22.17;;;4.40;;
82000;SDS011;71510;50.558;7.258;2023-11-19T10:44:34;18.65;;;4.05;;
82000;SDS011;71510;50.558;7.258;2023-11-19T10:47:00;21.27;;;4.70;;
82000;SDS011;71510;50.558;7.258;2023-11-19T10:49:27;18.67;;;3.95;;
82000;SDS011;71510;50.558;7.258;2023-11-19T10:51:54;19.80;;;4.00;;
82000;SDS011;71510;50.558;7.258;2023-11-19T10:54:24;19.65;;;4.85;;
82000;SDS011;71510;50.558;7.258;2023-11-19T10:56:54;25.88;;;5.30;;
82000;SDS011;71510;50.558;7.258;2023-11-19T10:59:20;23.65;;;3.72;;
82000;SDS011;71510;50.558;7.258;2023-11-19T11:01:48;23.15;;;4.47;;
82000;SDS011;71510;50.558;7.258;2023-11-19T11:04:23;22.40;;;4.45;;
82000;SDS011;71510;50.558;7.258;2023-11-19T11:06:46;14.10;;;3.83;;
82000;SDS011;71510;50.558;7.258;2023-11-19T11:09:14;16.62;;;3.62;;
82000;SDS011;71510;50.558;7.258;2023-11-19T11:11:44;20.88;;;4.08;;
82000;SDS011;71510;50.558;7.258;2023-11-19T11:14:11;21.02;;;3.65;;
82000;SDS011;71510;50.558;7.258;2023-11-19T11:16:44;17.30;;;3.80;;
82000;SDS011;71510;50.558;7.258;2023-11-19T11:19:12;23.15;;;4.20;;
82000;SDS011;71510;50.558;7.258;2023-11-19T11:21:40;18.67;;;4.12;;
82000;SDS011;71510;50.558;7.258;2023-11-19T11:26:56;20.72;;;4.00;;
82000;SDS011;71510;50.558;7.258;2023-11-19T11:29:26;14.03;;;3.20;;
82000;SDS011;71510;50.558;7.258;2023-11-19T11:31:57;15.68;;;3.87;;
82000;SDS011;71510;50.558;7.258;2023-11-19T11:37:12;15.43;;;4.15;;
82000;SDS011;71510;50.558;7.258;2023-11-19T11:39:40;14.50;;;3.25;;
82000;SDS011;71510;50.558;7.258;2023-11-19T11:45:07;14.53;;;3.27;;
82000;SDS011;71510;50.558;7.258;2023-11-19T11:48:17;16.15;;;4.20;;
82000;SDS011;71510;50.558;7.258;2023-11-19T11:50:06;16.10;;;3.85;;
82000;SDS011;71510;50.558;7.258;2023-11-19T11:53:20;13.32;;;3.70;;
82000;SDS011;71510;50.558;7.258;2023-11-19T11:55:06;19.02;;;3.98;;
82000;SDS011;71510;50.558;7.258;2023-11-19T11:57:38;16.30;;;4.22;;
82000;SDS011;71510;50.558;7.258;2023-11-19T12:00:08;15.53;;;3.50;;
82000;SDS011;71510;50.558;7.258;2023-11-19T12:02:36;20.27;;;3.60;;
82000;SDS011;71510;50.558;7.258;2023-11-19T12:05:04;17.05;;;4.28;;
82000;SDS011;71510;50.558;7.258;2023-11-19T12:07:32;21.35;;;4.12;;
82000;SDS011;71510;50.558;7.258;2023-11-19T12:10:08;18.82;;;3.52;;
82000;SDS011;71510;50.558;7.258;2023-11-19T12:12:33;16.15;;;3.40;;
82000;SDS011;71510;50.558;7.258;2023-11-19T12:15:03;16.23;;;3.47;;
82000;SDS011;71510;50.558;7.258;2023-11-19T12:20:02;18.37;;;3.85;;
82000;SDS011;71510;50.558;7.258;2023-11-19T12:22:30;16.20;;;3.72;;
82000;SDS011;71510;50.558;7.258;2023-11-19T12:24:57;12.98;;;3.15;;
82000;SDS011;71510;50.558;7.258;2023-11-19T12:27:25;18.15;;;4.60;;
82000;SDS011;71510;50.558;7.258;2023-11-19T12:29:53;13.00;;;2.75;;
82000;SDS011;71510;50.558;7.258;2023-11-19T12:32:22;16.30;;;3.15;;
82000;SDS011;71510;50.558;7.258;2023-11-19T12:34:50;11.10;;;2.92;;
82000;SDS011;71510;50.558;7.258;2023-11-19T12:37:17;14.40;;;3.17;;
82000;SDS011;71510;50.558;7.258;2023-11-19T12:39:44;13.78;;;3.75;;
82000;SDS011;71510;50.558;7.258;2023-11-19T12:42:12;16.97;;;3.85;;
82000;SDS011;71510;50.558;7.258;2023-11-19T12:44:39;11.90;;;3.08;;
82000;SDS011;71510;50.558;7.258;2023-11-19T12:47:08;14.58;;;3.15;;
82000;SDS011;71510;50.558;7.258;2023-11-19T12:49:37;17.60;;;3.55;;
82000;SDS011;71510;50.558;7.258;2023-11-19T12:52:13;12.70;;;3.90;;
82000;SDS011;71510;50.558;7.258;2023-11-19T12:54:41;10.75;;;2.58;;
82000;SDS011;71510;50.558;7.258;2023-11-19T12:57:08;17.27;;;3.42;;
82000;SDS011;71510;50.558;7.258;2023-11-19T12:59:35;18.30;;;4.28;;
82000;SDS011;71510;50.558;7.258;2023-11-19T13:02:02;17.67;;;3.40;;
82000;SDS011;71510;50.558;7.258;2023-11-19T13:04:32;19.05;;;4.03;;
82000;SDS011;71510;50.558;7.258;2023-11-19T13:06:59;18.10;;;3.12;;
82000;SDS011;71510;50.558;7.258;2023-11-19T13:09:27;14.10;;;2.98;;
82000;SDS011;71510;50.558;7.258;2023-11-19T13:11:55;18.05;;;4.72;;
82000;SDS011;71510;50.558;7.258;2023-11-19T13:14:22;15.15;;;4.22;;
82000;SDS011;71510;50.558;7.258;2023-11-19T13:16:50;11.57;;;2.80;;
82000;SDS011;71510;50.558;7.258;2023-11-19T13:19:19;20.48;;;3.55;;
82000;SDS011;71510;50.558;7.258;2023-11-19T13:21:46;15.13;;;3.00;;
82000;SDS011;71510;50.558;7.258;2023-11-19T13:24:14;12.20;;;3.10;;
82000;SDS011;71510;50.558;7.258;2023-11-19T13:26:42;19.45;;;2.92;;
82000;SDS011;71510;50.558;7.258;2023-11-19T13:29:09;13.58;;;3.20;;
82000;SDS011;71510;50.558;7.258;2023-11-19T13:31:37;20.62;;;4.58;;
82000;SDS011;71510;50.558;7.258;2023-11-19T13:34:05;16.10;;;3.22;;
82000;SDS011;71510;50.558;7.258;2023-11-19T13:36:34;15.93;;;3.10;;
82000;SDS011;71510;50.558;7.258;2023-11-19T13:39:01;18.02;;;3.72;;
82000;SDS011;71510;50.558;7.258;2023-11-19T13:41:28;14.93;;;3.65;;
82000;SDS011;71510;50.558;7.258;2023-11-19T13:43:56;17.70;;;3.50;;
82000;SDS011;71510;50.558;7.258;2023-11-19T13:46:23;13.38;;;3.70;;
82000;SDS011;71510;50.558;7.258;2023-11-19T13:48:50;16.05;;;4.37;;
82000;SDS011;71510;50.558;7.258;2023-11-19T13:51:18;11.85;;;3.02;;
82000;SDS011;71510;50.558;7.258;2023-11-19T13:53:45;14.45;;;2.90;;
82000;SDS011;71510;50.558;7.258;2023-11-19T13:56:13;10.82;;;2.05;;
82000;SDS011;71510;50.558;7.258;2023-11-19T13:58:40;13.85;;;3.15;;
82000;SDS011;71510;50.558;7.258;2023-11-19T14:01:07;16.90;;;3.83;;
82000;SDS011;71510;50.558;7.258;2023-11-19T14:03:35;11.75;;;3.12;;
82000;SDS011;71510;50.558;7.258;2023-11-19T14:06:02;15.88;;;3.35;;
82000;SDS011;71510;50.558;7.258;2023-11-19T14:08:29;13.53;;;3.58;;
82000;SDS011;71510;50.558;7.258;2023-11-19T14:10:57;15.08;;;3.65;;
82000;SDS011;71510;50.558;7.258;2023-11-19T14:13:24;9.63;;;2.42;;
82000;SDS011;71510;50.558;7.258;2023-11-19T14:15:51;13.68;;;3.05;;
82000;SDS011;71510;50.558;7.258;2023-11-19T14:18:19;14.73;;;2.45;;
82000;SDS011;71510;50.558;7.258;2023-11-19T14:20:46;17.30;;;3.17;;
82000;SDS011;71510;50.558;7.258;2023-11-19T14:23:13;12.58;;;3.55;;
82000;SDS011;71510;50.558;7.258;2023-11-19T14:25:40;15.55;;;2.92;;
82000;SDS011;71510;50.558;7.258;2023-11-19T14:28:08;16.82;;;2.83;;
82000;SDS011;71510;50.558;7.258;2023-11-19T14:30:35;16.55;;;3.15;;
82000;SDS011;71510;50.558;7.258;2023-11-19T14:33:03;15.98;;;3.05;;
82000;SDS011;71510;50.558;7.258;2023-11-19T14:35:31;14.18;;;3.12;;
82000;SDS011;71510;50.558;7.258;2023-11-19T14:38:00;14.47;;;2.75;;
82000;SDS011;71510;50.558;7.258;2023-11-19T14:40:29;19.45;;;4.08;;
82000;SDS011;71510;50.558;7.258;2023-11-19T14:42:56;16.27;;;2.85;;
82000;SDS011;71510;50.558;7.258;2023-11-19T14:45:23;12.65;;;2.83;;
82000;SDS011;71510;50.558;7.258;2023-11-19T14:47:51;15.38;;;2.65;;
82000;SDS011;71510;50.558;7.258;2023-11-19T14:50:18;12.85;;;2.92;;
82000;SDS011;71510;50.558;7.258;2023-11-19T14:52:46;12.58;;;2.70;;
82000;SDS011;71510;50.558;7.258;2023-11-19T14:55:13;11.50;;;3.45;;